createdAt,value
2018-03-04T00:00:20.882Z,105.67
2018-03-04T00:02:49.630Z,104.20
2018-03-04T00:05:17.702Z,112.60
2018-03-04T00:07:45.594Z,114.10
2018-03-04T00:10:13.507Z,104.73
2018-03-04T00:12:41.402Z,102.80
2018-03-04T00:15:09.271Z,101.00
2018-03-04T00:17:37.137Z,104.30
2018-03-04T00:20:05.004Z,97.73
2018-03-04T00:22:41.986Z,99.70
2018-03-04T00:25:10.059Z,101.30
2018-03-04T00:27:38.121Z,98.83
2018-03-04T00:30:06.101Z,101.57
2018-03-04T00:32:34.283Z,98.40
2018-03-04T00:35:02.399Z,109.30
2018-03-04T00:37:30.209Z,112.07
2018-03-04T00:39:58.057Z,111.67
2018-03-04T00:42:25.850Z,111.23
2018-03-04T00:44:53.708Z,103.97
2018-03-04T00:47:21.583Z,109.17
2018-03-04T00:49:49.545Z,97.57
2018-03-04T00:52:17.412Z,95.13
2018-03-04T00:54:45.325Z,102.90
2018-03-04T00:57:13.964Z,99.13
2018-03-04T00:59:41.840Z,100.03
2018-03-04T01:02:09.903Z,92.83
2018-03-04T01:04:37.783Z,89.70
2018-03-04T01:07:05.740Z,95.67
2018-03-04T01:09:33.607Z,97.33
2018-03-04T01:12:01.426Z,102.57
2018-03-04T01:14:29.351Z,89.43
2018-03-04T01:16:57.228Z,93.53
2018-03-04T01:19:25.073Z,96.30
2018-03-04T01:21:53.146Z,90.27
2018-03-04T01:24:21.115Z,91.53
2018-03-04T01:26:49.113Z,85.37
2018-03-04T01:29:17.771Z,90.37
2018-03-04T01:31:45.792Z,86.23
2018-03-04T01:34:14.391Z,84.77
2018-03-04T01:36:42.198Z,95.90
2018-03-04T01:39:10.075Z,84.63
2018-03-04T01:41:37.924Z,91.80
2018-03-04T01:44:05.789Z,88.87
2018-03-04T01:46:33.602Z,93.30
2018-03-04T01:49:02.073Z,94.73
2018-03-04T01:51:42.507Z,203.60
2018-03-04T01:54:10.423Z,115.10
2018-03-04T01:56:38.447Z,110.70
2018-03-04T01:59:06.312Z,192.20
2018-03-04T02:01:34.193Z,221.00
2018-03-04T02:04:02.222Z,107.30
2018-03-04T02:06:30.057Z,95.63
2018-03-04T02:08:58.705Z,99.73
2018-03-04T02:11:26.727Z,92.27
2018-03-04T02:13:55.018Z,97.77
2018-03-04T02:16:23.030Z,92.90
2018-03-04T02:18:50.887Z,98.77
2018-03-04T02:21:18.751Z,89.37
2018-03-04T02:23:46.712Z,91.37
2018-03-04T02:26:14.783Z,94.33
2018-03-04T02:28:42.653Z,92.50
2018-03-04T02:31:10.519Z,88.50
2018-03-04T02:33:38.488Z,89.03
2018-03-04T02:36:06.353Z,93.37
2018-03-04T02:38:34.264Z,86.47
2018-03-04T02:41:02.809Z,98.00
2018-03-04T02:43:30.568Z,87.17
2018-03-04T02:45:58.437Z,98.93
2018-03-04T02:48:26.410Z,90.63
2018-03-04T02:50:54.334Z,92.10
2018-03-04T02:53:22.244Z,95.93
2018-03-04T02:55:50.259Z,90.43
2018-03-04T02:58:18.907Z,87.37
2018-03-04T03:00:46.763Z,95.20
2018-03-04T03:03:14.801Z,91.83
2018-03-04T03:05:42.712Z,87.27
2018-03-04T03:08:10.679Z,98.20
2018-03-04T03:10:38.641Z,92.10
2018-03-04T03:13:06.343Z,93.00
2018-03-04T03:15:34.999Z,94.50
2018-03-04T03:18:02.856Z,95.13
2018-03-04T03:20:30.723Z,100.40
2018-03-04T03:22:58.903Z,94.67
2018-03-04T03:25:26.915Z,91.27
2018-03-04T03:27:55.671Z,94.37
2018-03-04T03:49:25.725Z,87.27
2018-03-04T03:51:53.599Z,86.97
2018-03-04T03:54:22.279Z,101.40
2018-03-04T03:56:50.234Z,100.27
2018-03-04T03:59:18.089Z,99.47
2018-03-04T04:01:45.950Z,102.53
2018-03-04T04:04:13.944Z,95.27
2018-03-04T04:06:42.817Z,99.60
2018-03-04T04:09:10.787Z,101.23
2018-03-04T04:11:38.857Z,98.73
2018-03-04T04:14:06.725Z,92.67
2018-03-04T04:16:34.675Z,95.43
2018-03-04T04:19:02.476Z,98.33
2018-03-04T04:21:30.266Z,97.93
2018-03-04T04:23:58.909Z,98.10
2018-03-04T04:26:26.940Z,92.17
2018-03-04T04:28:54.791Z,84.47
2018-03-04T04:31:23.431Z,95.33
2018-03-04T04:33:51.399Z,95.30
2018-03-04T04:36:19.204Z,93.33
2018-03-04T04:38:47.906Z,95.77
2018-03-04T04:41:15.728Z,92.10
2018-03-04T04:43:43.594Z,96.63
2018-03-04T04:46:11.458Z,97.13
2018-03-04T04:48:39.365Z,93.90
2018-03-04T04:51:08.022Z,93.13
2018-03-04T04:53:36.689Z,94.20
2018-03-04T04:56:04.492Z,88.97
2018-03-04T04:58:33.254Z,94.40
2018-03-04T05:01:01.111Z,93.20
2018-03-04T05:03:28.989Z,90.23
2018-03-04T05:05:57.600Z,98.47
2018-03-04T05:08:26.251Z,87.00
2018-03-04T05:10:54.056Z,88.23
2018-03-04T05:13:22.603Z,89.90
2018-03-04T05:15:50.472Z,100.63
2018-03-04T05:18:18.336Z,96.77
2018-03-04T05:20:46.297Z,96.50
2018-03-04T05:23:14.268Z,101.37
2018-03-04T05:25:42.133Z,97.53
2018-03-04T05:28:10.001Z,97.83
2018-03-04T05:30:37.883Z,102.43
2018-03-04T05:33:05.736Z,93.97
2018-03-04T05:35:33.609Z,96.43
2018-03-04T05:38:01.469Z,97.03
2018-03-04T05:40:29.344Z,97.80
2018-03-04T05:42:57.309Z,99.43
2018-03-04T05:45:25.285Z,100.53
2018-03-04T05:47:53.446Z,98.73
2018-03-04T05:50:21.527Z,108.03
2018-03-04T05:52:49.398Z,106.03
2018-03-04T05:55:17.186Z,90.10
2018-03-04T05:57:45.960Z,98.43
2018-03-04T06:00:15.340Z,103.17
2018-03-04T06:02:43.218Z,103.13
2018-03-04T06:05:11.292Z,102.13
2018-03-04T06:07:39.165Z,102.90
2018-03-04T06:10:06.974Z,112.67
2018-03-04T06:12:36.520Z,104.47
2018-03-04T06:15:04.394Z,105.87
2018-03-04T06:17:32.355Z,108.33
2018-03-04T06:20:00.325Z,105.50
2018-03-04T06:22:28.202Z,110.13
2018-03-04T06:24:56.008Z,107.23
2018-03-04T06:27:23.925Z,105.37
2018-03-04T06:29:51.909Z,105.40
2018-03-04T06:32:19.760Z,108.70
2018-03-04T06:34:47.802Z,102.77
2018-03-04T06:37:15.701Z,100.17
2018-03-04T06:39:43.771Z,111.03
2018-03-04T06:42:11.739Z,107.27
2018-03-04T06:44:40.117Z,109.30
2018-03-04T06:47:07.925Z,113.30
2018-03-04T06:49:36.566Z,108.87
2018-03-04T06:52:04.437Z,112.93
2018-03-04T06:54:32.390Z,119.07
2018-03-04T06:57:00.272Z,111.23
2018-03-04T06:59:28.242Z,110.43
2018-03-04T07:01:56.372Z,111.47
2018-03-04T07:04:24.182Z,110.90
2018-03-04T07:06:52.311Z,115.93
2018-03-04T07:09:20.388Z,110.20
2018-03-04T07:11:48.193Z,105.80
2018-03-04T07:14:16.070Z,111.03
2018-03-04T07:16:43.873Z,114.10
2018-03-04T07:19:12.587Z,105.77
2018-03-04T07:21:40.415Z,106.77
2018-03-04T07:24:08.960Z,107.97
2018-03-04T07:26:37.153Z,111.63
2018-03-04T07:29:05.102Z,107.80
2018-03-04T07:31:33.072Z,115.97
2018-03-04T07:34:00.933Z,116.87
2018-03-04T07:36:28.798Z,110.63
2018-03-04T07:38:56.835Z,103.90
2018-03-04T07:41:24.896Z,101.43
2018-03-04T07:43:53.814Z,102.30
2018-03-04T07:46:21.810Z,99.30
2018-03-04T07:48:49.806Z,94.60
2018-03-04T07:51:17.646Z,97.73
2018-03-04T07:53:45.798Z,98.87
2018-03-04T07:56:13.689Z,104.37
2018-03-04T07:58:41.507Z,100.13
2018-03-04T08:01:09.422Z,190.03
2018-03-04T08:03:37.491Z,211.33
2018-03-04T08:06:05.349Z,115.83
2018-03-04T08:08:33.289Z,116.77
2018-03-04T08:11:01.373Z,121.33
2018-03-04T08:13:29.267Z,115.57
2018-03-04T08:15:57.144Z,117.23
2018-03-04T08:18:25.116Z,123.07
2018-03-04T08:20:52.973Z,117.40
2018-03-04T08:23:20.843Z,279.07
2018-03-04T08:25:48.705Z,200.57
2018-03-04T08:28:28.603Z,115.50
2018-03-04T08:30:57.292Z,110.20
2018-03-04T08:33:25.160Z,117.27
2018-03-04T08:35:53.277Z,110.00
2018-03-04T08:38:21.264Z,112.83
2018-03-04T08:40:49.123Z,114.27
2018-03-04T08:43:16.981Z,117.80
2018-03-04T08:45:44.836Z,122.30
2018-03-04T08:48:12.884Z,118.67
2018-03-04T08:50:40.907Z,131.17
2018-03-04T08:53:08.757Z,116.10
2018-03-04T08:55:36.725Z,122.90
2018-03-04T08:58:04.499Z,122.37
2018-03-04T09:00:32.586Z,121.20
2018-03-04T09:03:00.428Z,110.43
2018-03-04T09:05:28.391Z,115.43
2018-03-04T09:07:56.265Z,111.37
2018-03-04T09:10:24.131Z,111.50
2018-03-04T09:12:52.202Z,113.13
2018-03-04T09:15:20.173Z,111.70
2018-03-04T09:17:48.041Z,160.50
2018-03-04T09:20:15.906Z,178.17
2018-03-04T09:22:43.875Z,106.23
2018-03-04T09:25:11.744Z,109.00
2018-03-04T09:27:39.711Z,103.57
2018-03-04T09:30:07.963Z,104.63
2018-03-04T09:32:35.855Z,96.00
2018-03-04T09:35:03.746Z,100.97
2018-03-04T09:37:32.407Z,100.10
2018-03-04T09:40:00.452Z,103.67
2018-03-04T09:42:28.347Z,93.93
2018-03-04T09:44:56.522Z,94.37
2018-03-04T09:47:24.405Z,94.03
2018-03-04T09:49:52.458Z,90.23
2018-03-04T09:52:20.324Z,99.30
2018-03-04T09:54:48.571Z,89.80
2018-03-04T09:57:16.471Z,88.93
2018-03-04T09:59:44.643Z,91.50
2018-03-04T10:02:12.604Z,87.93
2018-03-04T10:04:40.582Z,85.03
2018-03-04T10:07:08.550Z,84.60
2018-03-04T10:09:36.529Z,82.63
2018-03-04T10:12:04.487Z,86.57
2018-03-04T10:14:32.538Z,88.57
2018-03-04T10:17:00.362Z,86.40
2018-03-04T10:19:29.113Z,254.60
2018-03-04T10:21:57.355Z,184.80
2018-03-04T10:24:25.457Z,83.03
2018-03-04T10:26:53.327Z,77.93
2018-03-04T10:29:21.467Z,76.20
2018-03-04T10:31:49.370Z,75.83
2018-03-04T10:34:17.237Z,72.50
2018-03-04T10:36:45.100Z,72.27
2018-03-04T10:39:12.972Z,65.03
2018-03-04T10:41:40.941Z,64.13
2018-03-04T10:44:08.819Z,68.43
2018-03-04T10:46:36.877Z,69.37
2018-03-04T10:49:04.753Z,68.43
2018-03-04T10:51:32.636Z,65.23
2018-03-04T10:54:01.226Z,67.20
2018-03-04T10:56:29.060Z,70.90
2018-03-04T10:58:56.930Z,77.13
2018-03-04T11:01:28.792Z,75.70
2018-03-04T11:03:56.882Z,76.03
2018-03-04T11:06:24.928Z,68.43
2018-03-04T11:08:53.512Z,69.83
2018-03-04T11:11:25.040Z,60.97
2018-03-04T11:13:56.100Z,63.53
2018-03-04T11:16:25.166Z,64.93
2018-03-04T11:18:53.539Z,62.10
2018-03-04T11:21:21.529Z,58.10
2018-03-04T11:23:49.424Z,75.03
2018-03-04T11:26:17.290Z,129.03
2018-03-04T11:28:45.077Z,80.17
2018-03-04T11:31:13.129Z,59.27
2018-03-04T11:33:41.055Z,62.43
2018-03-04T11:36:08.860Z,51.50
2018-03-04T11:38:36.837Z,53.97
2018-03-04T11:41:04.704Z,56.07
2018-03-04T11:43:32.563Z,55.40
2018-03-04T11:46:00.531Z,55.27
2018-03-04T11:48:28.399Z,55.13
2018-03-04T11:50:56.267Z,58.60
2018-03-04T11:53:24.257Z,58.40
2018-03-04T11:55:52.290Z,59.17
2018-03-04T11:58:20.071Z,60.37
2018-03-04T12:00:48.051Z,57.47
2018-03-04T12:03:16.237Z,55.77
2018-03-04T12:05:44.181Z,56.33
2018-03-04T12:08:12.152Z,55.60
2018-03-04T12:10:40.123Z,54.63
2018-03-04T12:13:08.024Z,54.33
2018-03-04T12:15:36.778Z,54.93
2018-03-04T12:18:04.557Z,55.63
2018-03-04T12:20:32.409Z,54.67
2018-03-04T12:23:00.378Z,56.03
2018-03-04T12:25:28.245Z,50.03
2018-03-04T12:27:56.223Z,55.03
2018-03-04T12:30:24.184Z,53.07
2018-03-04T12:32:52.293Z,55.37
2018-03-04T12:35:20.941Z,53.27
2018-03-04T12:37:48.761Z,50.73
2018-03-04T12:40:16.573Z,55.00
2018-03-04T12:42:44.645Z,52.37
2018-03-04T12:45:12.640Z,73.67
2018-03-04T12:47:40.500Z,63.73
2018-03-04T12:50:08.386Z,51.27
2018-03-04T12:52:37.236Z,53.17
2018-03-04T12:55:05.210Z,50.87
2018-03-04T12:57:33.083Z,57.03
2018-03-04T13:00:02.242Z,47.70
2018-03-04T13:02:31.643Z,50.60
2018-03-04T13:04:59.688Z,51.53
2018-03-04T13:07:28.395Z,52.27
2018-03-04T13:09:56.529Z,50.07
2018-03-04T13:12:25.315Z,52.43
2018-03-04T13:14:53.374Z,48.67
2018-03-04T13:17:21.437Z,51.03
2018-03-04T13:19:49.321Z,54.40
2018-03-04T13:22:17.371Z,51.47
2018-03-04T13:24:45.244Z,54.07
2018-03-04T13:27:13.222Z,49.77
2018-03-04T13:29:41.284Z,49.53
2018-03-04T13:32:09.255Z,52.07
2018-03-04T13:34:37.327Z,48.30
2018-03-04T13:37:05.130Z,58.97
2018-03-04T13:39:33.775Z,51.93
2018-03-04T13:42:01.676Z,50.10
2018-03-04T13:44:30.227Z,52.13
2018-03-04T13:46:58.400Z,50.17
2018-03-04T13:49:26.368Z,50.47
2018-03-04T13:51:54.419Z,47.10
2018-03-04T13:54:22.247Z,49.77
2018-03-04T13:56:50.893Z,47.03
2018-03-04T13:59:18.777Z,46.73
2018-03-04T14:01:46.572Z,49.93
2018-03-04T14:04:15.240Z,80.33
2018-03-04T14:06:44.067Z,49.70
2018-03-04T14:09:11.992Z,54.37
2018-03-04T14:11:40.039Z,47.73
2018-03-04T14:14:08.274Z,47.63
2018-03-04T14:16:36.182Z,50.27
2018-03-04T14:19:04.253Z,48.40
2018-03-04T14:21:32.121Z,45.67
2018-03-04T14:24:00.051Z,46.20
2018-03-04T14:26:28.026Z,48.20
2018-03-04T14:28:55.868Z,50.23
2018-03-04T14:31:24.509Z,47.30
2018-03-04T14:33:52.490Z,47.40
2018-03-04T14:36:20.344Z,49.47
2018-03-04T14:38:48.335Z,52.97
2018-03-04T14:41:16.287Z,50.50
2018-03-04T14:43:44.257Z,50.27
2018-03-04T14:46:12.307Z,53.10
2018-03-04T14:48:40.293Z,50.27
2018-03-04T14:51:08.247Z,49.73
2018-03-04T14:53:36.237Z,52.10
2018-03-04T14:56:04.303Z,51.73
2018-03-04T14:58:32.467Z,52.20
2018-03-04T15:01:00.550Z,53.10
2018-03-04T15:03:28.520Z,53.40
2018-03-04T15:05:56.490Z,52.67
2018-03-04T15:08:24.355Z,57.63
2018-03-04T15:10:52.982Z,53.93
2018-03-04T15:13:21.758Z,59.27
2018-03-04T15:15:49.695Z,53.17
2018-03-04T15:18:17.767Z,54.93
2018-03-04T15:20:45.739Z,52.30
2018-03-04T15:23:13.606Z,55.67
2018-03-04T15:25:41.471Z,57.40
2018-03-04T15:28:09.980Z,51.93
2018-03-04T15:30:38.695Z,78.60
2018-03-04T15:33:06.731Z,59.80
2018-03-04T15:35:34.615Z,73.80
2018-03-04T15:38:03.215Z,57.43
2018-03-04T15:40:31.051Z,54.67
2018-03-04T15:43:00.753Z,54.97
2018-03-04T15:45:28.913Z,59.40
2018-03-04T15:47:56.881Z,58.43
2018-03-04T15:50:25.108Z,56.17
2018-03-04T15:52:53.845Z,56.87
2018-03-04T15:55:21.672Z,59.47
2018-03-04T15:57:49.592Z,57.40
2018-03-04T16:00:17.445Z,59.77
2018-03-04T16:02:46.254Z,59.83
2018-03-04T16:05:14.364Z,59.20
2018-03-04T16:07:42.147Z,57.20
2018-03-04T16:10:09.947Z,60.77
2018-03-04T16:12:37.926Z,60.23
2018-03-04T16:15:05.978Z,61.80
2018-03-04T16:17:33.844Z,156.83
2018-03-04T16:20:01.760Z,107.13
2018-03-04T16:22:29.645Z,64.50
2018-03-04T16:24:57.439Z,64.67
2018-03-04T16:27:25.296Z,67.50
2018-03-04T16:29:53.135Z,64.53
2018-03-04T16:32:20.870Z,66.30
2018-03-04T16:34:48.722Z,68.33
2018-03-04T16:37:16.530Z,64.90
2018-03-04T16:39:44.339Z,68.53
2018-03-04T16:42:12.227Z,63.57
2018-03-04T16:44:40.639Z,68.57
2018-03-04T16:47:09.368Z,88.70
2018-03-04T16:49:37.271Z,68.87
2018-03-04T16:52:05.779Z,67.03
2018-03-04T16:54:33.660Z,64.80
2018-03-04T16:57:01.567Z,64.43
2018-03-04T16:59:29.322Z,65.53
2018-03-04T17:01:57.979Z,156.20
2018-03-04T17:04:25.880Z,128.93
2018-03-04T17:06:53.846Z,70.83
2018-03-04T17:09:21.777Z,65.90
2018-03-04T17:11:49.887Z,71.73
2018-03-04T17:14:17.752Z,71.73
2018-03-04T17:16:45.618Z,70.97
2018-03-04T17:19:13.692Z,72.33
2018-03-04T17:21:41.765Z,66.83
2018-03-04T17:24:09.582Z,66.57
2018-03-04T17:26:37.505Z,65.47
2018-03-04T17:29:05.365Z,65.83
2018-03-04T17:31:33.323Z,61.63
2018-03-04T17:34:01.103Z,65.40
2018-03-04T17:36:28.848Z,65.50
2018-03-04T17:38:56.604Z,68.67
2018-03-04T17:41:24.494Z,68.23
2018-03-04T17:43:52.319Z,63.17
2018-03-04T17:46:20.307Z,63.67
2018-03-04T17:48:48.403Z,66.73
2018-03-04T17:51:16.267Z,67.83
2018-03-04T17:53:44.165Z,65.63
2018-03-04T17:56:13.027Z,62.10
2018-03-04T17:58:41.174Z,65.20
2018-03-04T18:01:09.067Z,69.67
2018-03-04T18:03:37.072Z,69.57
2018-03-04T18:06:05.736Z,68.13
2018-03-04T18:08:34.016Z,65.20
2018-03-04T18:11:02.786Z,65.83
2018-03-04T18:13:30.755Z,67.40
2018-03-04T18:15:58.728Z,62.73
2018-03-04T18:18:27.413Z,68.50
2018-03-04T18:20:55.331Z,71.33
2018-03-04T18:23:23.973Z,67.27
2018-03-04T18:25:52.037Z,65.87
2018-03-04T18:28:19.939Z,67.67
2018-03-04T18:30:49.312Z,66.47
2018-03-04T18:33:17.121Z,66.87
2018-03-04T18:35:44.969Z,66.43
2018-03-04T18:38:14.674Z,66.33
2018-03-04T18:40:42.719Z,66.70
2018-03-04T18:43:11.627Z,67.47
2018-03-04T18:45:39.587Z,62.70
2018-03-04T18:48:07.669Z,67.90
2018-03-04T18:50:35.930Z,66.63
2018-03-04T18:53:03.794Z,69.67
2018-03-04T18:55:32.013Z,64.13
2018-03-04T18:58:00.654Z,68.17
2018-03-04T19:00:28.495Z,94.47
2018-03-04T19:02:56.386Z,96.83
2018-03-04T19:05:24.681Z,65.50
2018-03-04T19:07:52.887Z,66.20
2018-03-04T19:10:21.730Z,64.30
2018-03-04T19:12:49.698Z,64.53
2018-03-04T19:15:17.636Z,62.80
2018-03-04T19:17:45.639Z,62.90
2018-03-04T19:20:13.621Z,63.97
2018-03-04T19:22:42.384Z,61.83
2018-03-04T19:25:10.175Z,66.33
2018-03-04T19:27:37.968Z,66.30
2018-03-04T19:30:06.489Z,117.23
2018-03-04T19:32:34.316Z,191.03
2018-03-04T19:35:02.812Z,166.80
2018-03-04T19:37:30.723Z,95.87
2018-03-04T19:39:58.795Z,71.83
2018-03-04T19:42:26.880Z,69.63
2018-03-04T19:44:55.426Z,67.33
2018-03-04T19:47:23.216Z,67.80
2018-03-04T19:49:51.056Z,74.63
2018-03-04T19:52:18.799Z,66.97
2018-03-04T19:54:46.631Z,71.53
2018-03-04T19:57:14.476Z,73.17
2018-03-04T19:59:42.256Z,65.63
2018-03-04T20:02:10.272Z,69.63
2018-03-04T20:04:38.087Z,75.27
2018-03-04T20:07:05.875Z,68.27
2018-03-04T20:09:34.455Z,61.40
2018-03-04T20:12:02.401Z,67.33
2018-03-04T20:14:30.323Z,67.73
2018-03-04T20:16:59.030Z,70.40
2018-03-04T20:19:26.836Z,112.03
2018-03-04T20:21:54.676Z,88.13
2018-03-04T20:24:22.478Z,77.37
2018-03-04T20:26:51.069Z,72.30
2018-03-04T20:29:19.615Z,81.97
2018-03-04T20:31:47.573Z,77.83
2018-03-04T20:34:15.330Z,172.00
2018-03-04T20:36:43.085Z,150.27
2018-03-04T20:39:10.900Z,79.57
2018-03-04T20:41:38.743Z,78.57
2018-03-04T20:44:06.466Z,72.63
2018-03-04T20:46:34.295Z,86.40
2018-03-04T20:49:02.016Z,74.30
2018-03-04T20:51:29.870Z,78.63
2018-03-04T20:53:57.631Z,84.33
2018-03-04T20:56:25.448Z,81.87
2018-03-04T20:58:53.388Z,73.40
2018-03-04T21:01:21.218Z,80.57
2018-03-04T21:03:49.082Z,77.20
2018-03-04T21:06:16.995Z,74.10
2018-03-04T21:08:44.974Z,76.80
2018-03-04T21:11:13.586Z,78.00
2018-03-04T21:13:41.537Z,85.27
2018-03-04T21:16:09.434Z,79.23
2018-03-04T21:18:38.067Z,80.17
2018-03-04T21:21:05.800Z,74.10
2018-03-04T21:23:33.671Z,84.87
2018-03-04T21:26:01.405Z,80.27
2018-03-04T21:28:29.889Z,67.83
2018-03-04T21:30:58.538Z,75.07
2018-03-04T21:33:26.405Z,80.33
2018-03-04T21:35:54.195Z,123.10
2018-03-04T21:38:22.784Z,95.53
2018-03-04T21:40:50.600Z,159.00
2018-03-04T21:43:18.418Z,169.97
2018-03-04T21:45:47.075Z,93.13
2018-03-04T21:48:14.803Z,71.70
2018-03-04T21:50:42.587Z,72.77
2018-03-04T21:53:10.369Z,72.63
2018-03-04T21:55:38.166Z,73.77
2018-03-04T21:58:06.818Z,72.77
2018-03-04T22:00:34.666Z,72.17
2018-03-04T22:03:02.461Z,71.27
2018-03-04T22:05:30.315Z,71.23
2018-03-04T22:07:58.119Z,68.70
2018-03-04T22:10:26.704Z,73.23
2018-03-04T22:12:55.182Z,74.30
2018-03-04T22:15:23.807Z,68.23
2018-03-04T22:17:51.575Z,74.07
2018-03-04T22:20:19.291Z,75.73
2018-03-04T22:22:47.856Z,75.53
2018-03-04T22:25:15.639Z,74.57
2018-03-04T22:27:44.192Z,75.40
2018-03-04T22:30:12.081Z,67.90
2018-03-04T22:32:39.800Z,74.83
2018-03-04T22:35:07.590Z,91.60
2018-03-04T22:37:35.419Z,81.03
2018-03-04T22:40:03.201Z,91.73
2018-03-04T22:42:30.987Z,74.97
2018-03-04T22:44:58.799Z,78.97
2018-03-04T22:47:26.610Z,76.27
2018-03-04T22:49:54.755Z,76.93
2018-03-04T22:52:22.656Z,77.33
2018-03-04T22:54:50.824Z,77.67
2018-03-04T22:57:18.641Z,72.80
2018-03-04T22:59:47.303Z,77.73
2018-03-04T23:02:15.843Z,74.73
2018-03-04T23:04:43.556Z,75.07
2018-03-04T23:07:12.112Z,77.33
2018-03-04T23:09:40.615Z,71.93
2018-03-04T23:12:08.332Z,76.87
2018-03-04T23:14:36.164Z,75.40
2018-03-04T23:17:04.680Z,80.83
2018-03-04T23:19:32.435Z,78.73
2018-03-04T23:22:00.208Z,80.13
2018-03-04T23:24:27.909Z,81.17
2018-03-04T23:26:55.661Z,82.13
2018-03-04T23:29:23.459Z,85.27
2018-03-04T23:31:52.015Z,83.63
2018-03-04T23:34:19.761Z,77.20
2018-03-04T23:36:47.553Z,80.03
2018-03-04T23:39:15.341Z,74.33
2018-03-04T23:41:43.831Z,73.93
2018-03-04T23:44:11.631Z,76.03
2018-03-04T23:46:39.375Z,75.53
2018-03-04T23:49:07.094Z,107.37
2018-03-04T23:51:34.870Z,138.33
2018-03-04T23:54:03.379Z,111.83
2018-03-04T23:56:31.078Z,112.93
2018-03-04T23:58:58.899Z,69.60
